Ferguson, North Carolina
Current Conditions -  °F | °C
As of 10:15 PM on Tuesday 25 Nov 2014 (Local Time) from KTNB Reporting Station
Broken Clouds Broken Clouds  
Wind Chill: 38°   Ceiling: 10000
Heat Index: 38°   Visibility: 10mi
Dew Point: 29°   Wind: 0mph
Humidity: 70%   Direction: NA
Pressure: 30.08"   Gusts: NA
Location:  36.09°N, 81.37°W
Report Text: KTNB 260315Z AUTO 00000KT 10SM BKN100 04/M01 A3008 RMK AO2 T00351015
Loading
Personal Weather Stations






























Interactive Weather Map New forecast layout! Learn more

10-Day Weather Forecast

Advertisements
Track Severe Weather on mobile